Thursday, March 23, 2017, 12:22 AM EDT

KDOV, Dover Air Force Base

Location: Dover, DE, United States Lat: 39.133
Local Time: 12:22 AM EDT ( 4:22 GMT) Lon: -75.467
Time Zone: US/Eastern Elev: 29 ft

Show me the last for .
Show Decoded

2017-03-22 23:58 METAR KDOV 230358Z AUTO 01008KT 10SM CLR M02/M13 A3047 =
2017-03-22 22:58 METAR KDOV 230258Z AUTO 34012KT 10SM CLR M01/M12 A3045 RMK AO2 SLP315 T10141121
                 52030 $ =
2017-03-22 21:58 METAR KDOV 230158Z AUTO 33007KT 10SM CLR M02/M10 A3043 RMK AO2 SLP308 T10181103
                 $ =
2017-03-22 20:58 METAR KDOV 230058Z AUTO 34013KT 10SM CLR 01/M12 A3040 =
2017-03-22 19:58 METAR KDOV 222358Z AUTO 34012KT 10SM CLR 02/M12 A3037 =
2017-03-22 18:58 METAR KDOV 222258Z AUTO 33016KT 10SM CLR 03/M12 A3033 RMK AO2 SLP274 T00341119 $
                 =
2017-03-22 17:58 METAR KDOV 222158Z AUTO 32015KT 10SM CLR 05/M12 A3029 =
2017-03-22 16:58 METAR KDOV 222058Z AUTO 33020G26KT 10SM CLR 06/M11 A3027 =
2017-03-22 15:58 METAR KDOV 221958Z AUTO 31018G31KT 10SM CLR 06/M12 A3024 RMK AO2 PK WND 33039/11
                 SLP244 T00601125 $ =
2017-03-22 14:58 METAR KDOV 221858Z AUTO 33025G32KT 10SM CLR 07/M12 A3022 =
2017-03-22 13:58 METAR KDOV 221758Z AUTO 33024G35KT 10SM CLR 06/M11 A3021 =
2017-03-22 12:58 METAR KDOV 221658Z AUTO 31022G34KT 10SM CLR 07/M09 A3019 =
2017-03-22 11:58 METAR KDOV 221558Z AUTO 31017G29KT 10SM CLR 06/M07 A3017 RMK AO2 PK WND 33036/20
                 SLP220 T00641072 $ =
2017-03-22 10:58 METAR KDOV 221458Z AUTO 31020G33KT 10SM FEW049 06/M06 A3015 =
2017-03-22 09:58 METAR KDOV 221358Z AUTO 33022G30KT 10SM CLR 07/M06 A3010 =
2017-03-22 08:58 METAR KDOV 221258Z AUTO 32019G26KT 10SM SCT049 06/M03 A3007 =
2017-03-22 07:58 METAR KDOV 221158Z AUTO 31020G27KT 10SM CLR 07/M02 A3002 =
2017-03-22 06:58 METAR KDOV 221058Z AUTO 32016G22KT 10SM CLR 08/M02 A2998 =
2017-03-22 05:58 METAR KDOV 220958Z AUTO 31012KT 10SM BKN080 09/M01 A2994 =
2017-03-22 04:58 METAR KDOV 220858Z AUTO 30010KT 10SM OVC075 10/03 A2991 =
2017-03-22 03:58 METAR KDOV 220758Z AUTO 29007KT 10SM BKN070 OVC085 10/06 A2989 =
2017-03-22 02:58 METAR KDOV 220658Z AUTO 30008KT 10SM BKN075 BKN120 OVC150 10/06 A2989 =
2017-03-22 01:58 METAR KDOV 220558Z AUTO 23005KT 10SM OVC075 09/07 A2989 =
2017-03-22 00:58 METAR KDOV 220458Z AUTO 22004KT 10SM OVC110 10/07 A2989 =

Support USWX by starting your Amazon purchase here.